createdAt,value
2018-07-26T00:04:22.257Z,4
2018-07-26T00:09:24.654Z,4
2018-07-26T00:14:27.040Z,4
2018-07-26T00:19:29.547Z,4
2018-07-26T00:24:32.143Z,5
2018-07-26T00:34:36.815Z,4
2018-07-26T00:39:39.234Z,5
2018-07-26T00:44:41.684Z,5
2018-07-26T00:49:44.165Z,5
2018-07-26T00:54:46.559Z,5
2018-07-26T00:59:48.998Z,5
2018-07-26T01:04:51.478Z,6
2018-07-26T01:09:53.884Z,5
2018-07-26T01:14:56.328Z,4
2018-07-26T01:19:58.987Z,5
2018-07-26T01:25:01.269Z,7
2018-07-26T01:30:08.785Z,6
2018-07-26T01:35:06.431Z,6
2018-07-26T01:40:08.528Z,5
2018-07-26T01:45:10.983Z,6
2018-07-26T01:50:13.481Z,7
2018-07-26T01:55:15.845Z,6
2018-07-26T02:00:18.491Z,5
2018-07-26T02:05:21.079Z,6
2018-07-26T02:10:23.292Z,6
2018-07-26T02:15:25.618Z,6
2018-07-26T02:20:28.197Z,6
2018-07-26T02:25:30.678Z,8
2018-07-26T02:30:32.930Z,5
2018-07-26T02:35:35.403Z,6
2018-07-26T02:40:38.039Z,6
2018-07-26T02:45:40.326Z,5
2018-07-26T02:50:43.218Z,5
2018-07-26T02:55:45.513Z,6
2018-07-26T03:00:47.934Z,6
2018-07-26T03:05:50.088Z,5
2018-07-26T03:10:52.490Z,8
2018-07-26T03:15:55.018Z,6
2018-07-26T03:20:57.425Z,6
2018-07-26T03:25:59.899Z,7
2018-07-26T03:31:02.245Z,7
2018-07-26T03:36:04.709Z,7
2018-07-26T03:41:07.108Z,6
2018-07-26T03:46:09.531Z,7
2018-07-26T03:51:12.153Z,7
2018-07-26T03:56:14.429Z,8
2018-07-26T04:01:17.088Z,7
2018-07-26T04:06:19.416Z,7
2018-07-26T04:11:21.748Z,10
2018-07-26T04:16:24.188Z,8
2018-07-26T04:21:26.713Z,9
2018-07-26T04:26:29.065Z,7
2018-07-26T04:31:31.528Z,7
2018-07-26T04:36:33.985Z,8
2018-07-26T04:41:36.445Z,7
2018-07-26T04:46:39.172Z,7
2018-07-26T04:51:41.476Z,7
2018-07-26T04:56:43.780Z,8
2018-07-26T05:01:46.658Z,8
2018-07-26T05:06:48.617Z,7
2018-07-26T05:11:51.172Z,8
2018-07-26T05:16:53.853Z,8
2018-07-26T05:21:55.980Z,8
2018-07-26T05:26:58.466Z,7
2018-07-26T05:32:01.334Z,7
2018-07-26T05:37:03.657Z,7
2018-07-26T05:47:08.278Z,6
2018-07-26T05:52:10.825Z,6
2018-07-26T05:57:13.003Z,5
2018-07-26T06:02:15.617Z,6
2018-07-26T06:07:18.373Z,5
2018-07-26T06:12:20.580Z,6
2018-07-26T06:17:22.899Z,7
2018-07-26T06:22:25.287Z,6
2018-07-26T06:27:27.757Z,6
2018-07-26T06:32:30.294Z,6
2018-07-26T06:37:32.886Z,7
2018-07-26T06:42:35.655Z,5
2018-07-26T06:47:37.442Z,7
2018-07-26T06:52:39.906Z,5
2018-07-26T06:57:42.376Z,4
2018-07-26T07:02:44.755Z,5
2018-07-26T07:07:47.255Z,6
2018-07-26T07:12:49.649Z,6
2018-07-26T07:17:52.228Z,5
2018-07-26T07:22:54.555Z,4
2018-07-26T07:27:57.002Z,4
2018-07-26T07:32:59.467Z,5
2018-07-26T07:38:02.649Z,5
2018-07-26T07:43:04.324Z,5
2018-07-26T07:48:06.684Z,6
2018-07-26T07:53:09.730Z,4
2018-07-26T07:58:11.612Z,4
2018-07-26T08:03:14.034Z,4
2018-07-26T08:08:16.677Z,3
2018-07-26T08:13:18.908Z,4
2018-07-26T08:18:21.351Z,4
2018-07-26T08:23:23.855Z,4
2018-07-26T08:28:26.281Z,4
2018-07-26T08:33:28.936Z,4
2018-07-26T08:38:31.302Z,3
2018-07-26T08:43:33.579Z,4
2018-07-26T08:48:36.008Z,3
2018-07-26T08:53:38.461Z,4
2018-07-26T08:58:40.942Z,3
2018-07-26T09:03:43.393Z,3
2018-07-26T09:08:45.792Z,3
2018-07-26T09:13:48.616Z,4
2018-07-26T09:18:50.982Z,4
2018-07-26T09:23:53.117Z,4
2018-07-26T09:28:55.611Z,4
2018-07-26T09:33:58.106Z,4
2018-07-26T09:39:00.716Z,5
2018-07-26T09:44:02.886Z,5
2018-07-26T09:49:05.413Z,4
2018-07-26T09:54:07.910Z,4
2018-07-26T09:59:10.267Z,4
2018-07-26T10:04:12.721Z,5
2018-07-26T10:09:15.284Z,4
2018-07-26T10:14:17.602Z,8
2018-07-26T10:19:20.058Z,4
2018-07-26T10:24:22.663Z,4
2018-07-26T10:29:24.859Z,5
2018-07-26T10:34:27.317Z,4
2018-07-26T10:39:29.766Z,4
2018-07-26T10:49:34.665Z,5
2018-07-26T10:54:37.184Z,4
2018-07-26T10:59:39.496Z,5
2018-07-26T11:04:42.272Z,5
2018-07-26T11:09:44.461Z,4
2018-07-26T11:14:46.905Z,4
2018-07-26T11:19:49.352Z,5
2018-07-26T11:24:52.184Z,4
2018-07-26T11:29:54.386Z,4
2018-07-26T11:34:56.611Z,5
2018-07-26T11:39:59.157Z,4
2018-07-26T11:45:01.514Z,5
2018-07-26T11:50:03.994Z,4
2018-07-26T11:55:06.360Z,5
2018-07-26T12:00:08.856Z,5
2018-07-26T12:05:12.720Z,4
2018-07-26T12:10:14.378Z,4
2018-07-26T12:15:19.244Z,4
2018-07-26T12:20:18.674Z,4
2018-07-26T12:25:21.012Z,4
2018-07-26T12:30:23.510Z,4
2018-07-26T12:35:26.081Z,4
2018-07-26T12:40:28.367Z,4
2018-07-26T12:45:30.807Z,4
2018-07-26T12:50:33.276Z,3
2018-07-26T12:55:35.867Z,3
2018-07-26T13:00:38.537Z,4
2018-07-26T13:05:40.689Z,3
2018-07-26T13:10:43.038Z,4
2018-07-26T13:15:45.485Z,4
2018-07-26T13:20:47.875Z,3
2018-07-26T13:25:50.305Z,3
2018-07-26T13:30:53.022Z,4
2018-07-26T13:35:55.259Z,9
2018-07-26T13:40:57.634Z,4
2018-07-26T13:46:00.582Z,3
2018-07-26T13:51:02.554Z,5
2018-07-26T13:56:04.970Z,5
2018-07-26T14:01:07.411Z,4
2018-07-26T14:06:09.981Z,4
2018-07-26T14:11:12.435Z,4
2018-07-26T14:16:15.092Z,3
2018-07-26T14:21:17.179Z,7
2018-07-26T14:26:19.670Z,3
2018-07-26T14:31:22.056Z,3
2018-07-26T14:36:24.670Z,4
2018-07-26T14:41:27.118Z,6
2018-07-26T14:46:29.426Z,3
2018-07-26T14:51:31.926Z,3
2018-07-26T14:56:34.252Z,3
2018-07-26T15:01:36.785Z,5
2018-07-26T15:11:41.676Z,4
2018-07-26T15:16:44.181Z,4
2018-07-26T15:21:46.488Z,4
2018-07-26T15:26:48.955Z,5
2018-07-26T15:31:52.595Z,4
2018-07-26T15:36:54.383Z,5
2018-07-26T15:41:56.251Z,5
2018-07-26T15:46:58.785Z,6
2018-07-26T15:52:01.199Z,5
2018-07-26T15:57:03.842Z,6
2018-07-26T16:02:06.012Z,7
2018-07-26T16:07:08.476Z,7
2018-07-26T16:12:11.026Z,5
2018-07-26T16:17:13.828Z,8
2018-07-26T16:22:15.829Z,5
2018-07-26T16:27:18.222Z,7
2018-07-26T16:32:20.661Z,5
2018-07-26T16:37:23.109Z,6
2018-07-26T16:42:25.752Z,7
2018-07-26T16:47:27.983Z,6
2018-07-26T16:52:30.494Z,7
2018-07-26T16:57:32.939Z,7
2018-07-26T17:02:35.309Z,7
2018-07-26T17:07:37.745Z,5
2018-07-26T17:12:40.565Z,7
2018-07-26T17:17:42.683Z,7
2018-07-26T17:22:45.387Z,5
2018-07-26T17:27:47.596Z,6
2018-07-26T17:32:49.958Z,5
2018-07-26T17:37:52.468Z,5
2018-07-26T17:42:54.854Z,5
2018-07-26T17:47:57.313Z,6
2018-07-26T17:52:59.758Z,5
2018-07-26T17:58:02.249Z,5
2018-07-26T18:03:04.658Z,5
2018-07-26T18:08:07.089Z,5
2018-07-26T18:13:09.505Z,5
2018-07-26T18:18:11.963Z,5
2018-07-26T18:23:14.463Z,4
2018-07-26T18:28:16.922Z,6
2018-07-26T18:33:19.435Z,4
2018-07-26T18:38:21.770Z,5
2018-07-26T18:43:24.397Z,5
2018-07-26T18:48:26.735Z,6
2018-07-26T18:53:29.365Z,5
2018-07-26T18:58:31.635Z,7
2018-07-26T19:03:34.207Z,8
2018-07-26T19:08:36.380Z,7
2018-07-26T19:13:39.465Z,8
2018-07-26T19:18:41.363Z,6
2018-07-26T19:23:43.760Z,6
2018-07-26T19:28:46.193Z,6
2018-07-26T19:33:48.602Z,8
2018-07-26T19:43:53.654Z,6
2018-07-26T19:48:56.264Z,10
2018-07-26T19:53:58.384Z,6
2018-07-26T19:59:00.921Z,8
2018-07-26T20:04:03.522Z,10
2018-07-26T20:09:05.698Z,6
2018-07-26T20:14:10.994Z,6
2018-07-26T20:19:10.676Z,6
2018-07-26T20:24:13.000Z,7
2018-07-26T20:29:15.636Z,7
2018-07-26T20:34:17.935Z,11
2018-07-26T20:44:22.765Z,9
2018-07-26T20:49:25.287Z,6
2018-07-26T20:54:27.668Z,6
2018-07-26T20:59:30.161Z,7
2018-07-26T21:04:32.692Z,6
2018-07-26T21:09:34.947Z,6
2018-07-26T21:14:37.546Z,6
2018-07-26T21:19:39.873Z,8
2018-07-26T21:24:42.289Z,6
2018-07-26T21:29:45.335Z,7
2018-07-26T21:34:47.154Z,6
2018-07-26T21:39:49.697Z,7
2018-07-26T21:44:52.125Z,7
2018-07-26T21:49:54.514Z,7
2018-07-26T21:54:56.923Z,7
2018-07-26T21:59:59.366Z,8
2018-07-26T22:05:01.907Z,8
2018-07-26T22:10:04.315Z,9
2018-07-26T22:15:06.727Z,6
2018-07-26T22:20:09.482Z,8
2018-07-26T22:25:11.560Z,6
2018-07-26T22:30:15.455Z,9
2018-07-26T22:35:16.582Z,7
2018-07-26T22:50:23.792Z,7
2018-07-26T22:55:26.206Z,7
2018-07-26T23:00:28.722Z,7
2018-07-26T23:05:31.172Z,7
2018-07-26T23:10:33.550Z,7
2018-07-26T23:15:36.001Z,8
2018-07-26T23:20:38.438Z,6
2018-07-26T23:25:41.466Z,7
2018-07-26T23:30:43.356Z,9
2018-07-26T23:35:45.763Z,9
2018-07-26T23:40:48.256Z,7
2018-07-26T23:45:50.641Z,7
2018-07-26T23:50:53.268Z,9
2018-07-26T23:55:55.511Z,7
